createdAt,value
2018-10-16T00:01:05.094Z,70.88
2018-10-16T00:04:08.736Z,69.95
2018-10-16T00:07:12.304Z,71.10
2018-10-16T00:10:22.183Z,71.37
2018-10-16T00:13:25.755Z,71.31
2018-10-16T00:16:29.255Z,70.39
2018-10-16T00:19:33.316Z,71.46
2018-10-16T00:22:36.860Z,71.42
2018-10-16T00:25:40.335Z,72.43
2018-10-16T00:28:43.886Z,72.95
2018-10-16T00:31:48.428Z,72.87
2018-10-16T00:34:52.001Z,72.56
2018-10-16T00:37:55.528Z,72.45
2018-10-16T00:40:59.415Z,72.47
2018-10-16T00:44:02.985Z,72.96
2018-10-16T00:47:06.623Z,73.01
2018-10-16T00:50:10.225Z,72.61
2018-10-16T00:53:14.044Z,72.65
2018-10-16T00:56:18.578Z,72.68
2018-10-16T00:59:23.097Z,72.67
2018-10-16T01:02:26.728Z,72.78
2018-10-16T01:05:30.310Z,72.60
2018-10-16T01:08:33.774Z,72.69
2018-10-16T01:11:37.539Z,72.56
2018-10-16T01:14:40.981Z,72.60
2018-10-16T01:17:44.534Z,73.05
2018-10-16T01:20:48.033Z,72.81
2018-10-16T01:23:51.492Z,72.42
2018-10-16T01:26:55.053Z,72.32
2018-10-16T01:29:58.590Z,72.31
2018-10-16T01:33:02.100Z,72.84
2018-10-16T01:36:06.371Z,72.60
2018-10-16T01:39:09.823Z,72.65
2018-10-16T01:42:13.459Z,72.57
2018-10-16T01:45:16.939Z,73.02
2018-10-16T01:48:20.492Z,73.69
2018-10-16T01:51:23.943Z,73.59
2018-10-16T01:54:27.439Z,73.78
2018-10-16T01:57:30.936Z,73.56
2018-10-16T02:00:34.434Z,73.58
2018-10-16T02:03:38.376Z,73.42
2018-10-16T02:06:41.920Z,73.80
2018-10-16T02:09:45.353Z,73.77
2018-10-16T02:12:48.870Z,73.33
2018-10-16T02:15:52.707Z,73.37
2018-10-16T02:18:57.207Z,73.47
2018-10-16T02:22:00.764Z,73.44
2018-10-16T02:25:04.298Z,73.46
2018-10-16T02:28:07.816Z,73.75
2018-10-16T02:31:11.328Z,74.37
2018-10-16T02:34:14.814Z,74.48
2018-10-16T02:37:18.330Z,74.57
2018-10-16T02:40:21.847Z,74.35
2018-10-16T02:43:25.309Z,74.15
2018-10-16T02:46:28.848Z,73.71
2018-10-16T02:49:32.399Z,74.32
2018-10-16T02:52:36.151Z,74.42
2018-10-16T02:55:39.748Z,74.74
2018-10-16T02:58:43.359Z,74.80
2018-10-16T03:01:46.927Z,74.39
2018-10-16T03:04:50.460Z,73.53
2018-10-16T03:07:54.087Z,73.21
2018-10-16T03:10:57.677Z,73.25
2018-10-16T03:14:01.294Z,73.87
2018-10-16T03:17:04.990Z,74.05
2018-10-16T03:20:09.483Z,74.43
2018-10-16T03:23:13.081Z,74.32
2018-10-16T03:26:17.047Z,74.41
2018-10-16T03:29:20.646Z,75.31
2018-10-16T03:32:24.168Z,75.20
2018-10-16T03:35:28.753Z,75.38
2018-10-16T03:38:32.345Z,75.11
2018-10-16T03:41:35.823Z,75.45
2018-10-16T03:44:39.318Z,75.90
2018-10-16T03:47:42.881Z,75.99
2018-10-16T03:50:46.405Z,75.82
2018-10-16T03:53:51.253Z,75.53
2018-10-16T03:56:54.754Z,75.08
2018-10-16T03:59:58.244Z,75.50
2018-10-16T04:03:01.764Z,75.86
2018-10-16T04:06:05.317Z,75.83
2018-10-16T04:09:08.912Z,76.04
2018-10-16T04:12:12.367Z,76.02
2018-10-16T04:15:16.045Z,75.72
2018-10-16T04:18:19.642Z,75.12
2018-10-16T04:21:23.236Z,74.91
2018-10-16T04:24:26.828Z,75.44
2018-10-16T04:27:30.367Z,75.66
2018-10-16T04:30:33.977Z,75.98
2018-10-16T04:33:37.501Z,75.94
2018-10-16T04:36:46.798Z,75.91
2018-10-16T04:39:50.395Z,76.37
2018-10-16T04:42:53.937Z,76.80
2018-10-16T04:45:57.430Z,77.25
2018-10-16T04:49:01.011Z,77.26
2018-10-16T04:52:04.516Z,77.57
2018-10-16T04:55:08.246Z,77.44
2018-10-16T04:58:11.837Z,77.60
2018-10-16T05:01:15.632Z,77.69
2018-10-16T05:04:19.332Z,77.81
2018-10-16T05:07:22.995Z,77.63
2018-10-16T05:10:26.517Z,77.49
2018-10-16T05:13:30.153Z,77.05
2018-10-16T05:16:33.672Z,77.05
2018-10-16T05:19:39.392Z,76.00
2018-10-16T05:22:43.247Z,75.91
2018-10-16T05:25:46.831Z,76.18
2018-10-16T05:28:50.335Z,77.30
2018-10-16T05:31:53.933Z,78.32
2018-10-16T05:34:57.450Z,77.00
2018-10-16T05:38:00.961Z,75.68
2018-10-16T05:41:04.586Z,76.14
2018-10-16T05:44:08.336Z,75.29
2018-10-16T05:47:11.804Z,74.70
2018-10-16T05:50:15.316Z,74.75
2018-10-16T05:53:18.859Z,75.01
2018-10-16T05:56:22.381Z,75.38
2018-10-16T05:59:25.945Z,75.59
2018-10-16T06:02:29.510Z,75.41
2018-10-16T06:05:33.177Z,75.50
2018-10-16T06:08:36.684Z,75.25
2018-10-16T06:11:40.172Z,75.17
2018-10-16T06:14:43.668Z,75.10
2018-10-16T06:17:47.165Z,75.50
2018-10-16T06:20:50.703Z,76.33
2018-10-16T06:23:54.309Z,75.73
2018-10-16T06:26:57.747Z,75.38
2018-10-16T06:30:01.380Z,74.88
2018-10-16T06:33:05.048Z,74.44
2018-10-16T06:36:08.563Z,74.67
2018-10-16T06:39:12.131Z,74.62
2018-10-16T06:42:15.592Z,74.78
2018-10-16T06:45:19.149Z,74.70
2018-10-16T06:48:22.869Z,74.74
2018-10-16T06:51:26.100Z,75.03
2018-10-16T06:54:29.581Z,74.56
2018-10-16T06:57:33.197Z,74.39
2018-10-16T07:00:36.733Z,74.38
2018-10-16T07:03:40.276Z,74.68
2018-10-16T07:06:43.838Z,74.04
2018-10-16T07:09:47.331Z,74.02
2018-10-16T07:12:50.807Z,73.52
2018-10-16T07:15:54.313Z,73.34
2018-10-16T07:18:57.822Z,72.85
2018-10-16T07:22:01.709Z,73.06
2018-10-16T07:25:06.575Z,72.71
2018-10-16T07:28:10.210Z,72.57
2018-10-16T07:31:13.741Z,72.56
2018-10-16T07:34:17.410Z,72.09
2018-10-16T07:37:20.870Z,71.68
2018-10-16T07:40:24.427Z,71.77
2018-10-16T07:43:27.861Z,72.06
2018-10-16T07:46:31.220Z,72.38
2018-10-16T07:49:34.703Z,72.32
2018-10-16T07:52:38.233Z,72.13
2018-10-16T07:55:41.714Z,73.28
2018-10-16T07:58:45.222Z,73.97
2018-10-16T08:01:48.708Z,73.37
2018-10-16T08:04:52.251Z,73.30
2018-10-16T08:07:55.684Z,73.35
2018-10-16T08:10:59.295Z,73.89
2018-10-16T08:14:02.799Z,74.16
2018-10-16T08:17:06.446Z,74.45
2018-10-16T08:20:09.994Z,74.82
2018-10-16T08:23:13.521Z,74.59
2018-10-16T08:26:17.052Z,73.63
2018-10-16T08:29:20.554Z,73.43
2018-10-16T08:32:24.122Z,72.90
2018-10-16T08:35:27.659Z,71.23
2018-10-16T08:39:40.742Z,71.18
2018-10-16T08:42:57.938Z,71.04
2018-10-16T08:46:12.785Z,70.44
2018-10-16T08:49:27.511Z,69.32
2018-10-16T08:52:30.947Z,66.65
2018-10-16T08:55:35.033Z,66.04
2018-10-16T08:58:38.517Z,65.72
2018-10-16T09:01:42.276Z,65.99
2018-10-16T09:04:45.720Z,64.51
2018-10-16T09:07:49.148Z,63.93
2018-10-16T09:10:52.712Z,63.12
2018-10-16T09:13:56.658Z,62.98
2018-10-16T09:17:00.112Z,62.92
2018-10-16T09:20:03.748Z,62.16
2018-10-16T09:23:07.793Z,62.52
2018-10-16T09:26:11.329Z,60.46
2018-10-16T09:29:14.982Z,58.69
2018-10-16T09:32:18.457Z,57.92
2018-10-16T09:35:22.002Z,58.45
2018-10-16T09:38:25.361Z,58.05
2018-10-16T09:41:28.867Z,57.18
2018-10-16T09:44:32.283Z,56.90
2018-10-16T09:47:35.764Z,55.43
2018-10-16T09:50:39.207Z,54.59
2018-10-16T09:53:42.668Z,53.88
2018-10-16T09:56:46.133Z,54.11
2018-10-16T09:59:49.678Z,55.00
2018-10-16T10:02:53.138Z,54.10
2018-10-16T10:05:56.736Z,54.60
2018-10-16T10:09:00.387Z,53.14
2018-10-16T10:12:03.848Z,50.99
2018-10-16T10:15:07.762Z,51.29
2018-10-16T10:18:11.368Z,51.20
2018-10-16T10:21:14.882Z,51.21
2018-10-16T10:24:18.370Z,50.24
2018-10-16T10:27:21.974Z,49.93
2018-10-16T10:30:25.578Z,50.31
2018-10-16T10:33:29.011Z,49.67
2018-10-16T10:36:32.530Z,49.83
2018-10-16T10:39:36.188Z,50.72
2018-10-16T10:42:39.719Z,50.33
2018-10-16T10:45:43.321Z,49.40
2018-10-16T10:48:46.871Z,47.62
2018-10-16T10:51:50.402Z,48.75
2018-10-16T10:54:53.843Z,48.58
2018-10-16T10:57:57.404Z,48.62
2018-10-16T11:01:01.148Z,47.91
2018-10-16T11:04:05.236Z,46.80
2018-10-16T11:07:08.978Z,46.88
2018-10-16T11:10:13.806Z,46.75
2018-10-16T11:13:17.390Z,46.23
2018-10-16T11:16:22.898Z,46.81
2018-10-16T11:19:26.505Z,47.04
2018-10-16T11:22:30.139Z,45.67
2018-10-16T11:25:33.674Z,45.41
2018-10-16T11:28:37.282Z,45.14
2018-10-16T11:31:40.967Z,44.16
2018-10-16T11:34:44.511Z,44.73
2018-10-16T11:37:48.020Z,43.93
2018-10-16T11:40:51.641Z,44.27
2018-10-16T11:43:55.400Z,43.04
2018-10-16T11:46:59.103Z,43.97
2018-10-16T11:50:02.709Z,44.19
2018-10-16T11:53:06.379Z,45.16
2018-10-16T11:56:10.068Z,44.12
2018-10-16T11:59:13.705Z,43.85
2018-10-16T12:02:17.243Z,44.03
2018-10-16T12:05:20.857Z,44.33
2018-10-16T12:08:24.454Z,44.58
2018-10-16T12:11:28.035Z,43.45
2018-10-16T12:14:31.695Z,43.66
2018-10-16T12:17:44.579Z,43.30
2018-10-16T12:20:51.149Z,43.32
2018-10-16T12:23:54.744Z,43.29
2018-10-16T12:26:58.204Z,43.30
2018-10-16T12:30:01.767Z,43.47
2018-10-16T12:33:05.408Z,42.49
2018-10-16T12:36:09.070Z,43.47
2018-10-16T12:39:13.530Z,43.08
2018-10-16T12:42:16.974Z,43.22
2018-10-16T12:45:20.491Z,43.54
2018-10-16T12:48:24.057Z,42.77
2018-10-16T12:51:27.653Z,43.39
2018-10-16T12:54:31.170Z,43.22
2018-10-16T12:57:34.688Z,43.35
2018-10-16T13:00:38.154Z,43.06
2018-10-16T13:03:41.665Z,42.94
2018-10-16T13:06:45.390Z,42.72
2018-10-16T13:09:49.003Z,43.35
2018-10-16T13:12:52.563Z,42.56
2018-10-16T13:15:56.089Z,42.92
2018-10-16T13:18:59.538Z,43.34
2018-10-16T13:22:04.074Z,42.94
2018-10-16T13:25:09.306Z,42.81
2018-10-16T13:28:12.941Z,42.55
2018-10-16T13:31:16.334Z,42.85
2018-10-16T13:34:20.230Z,42.45
2018-10-16T13:37:23.970Z,42.67
2018-10-16T13:40:27.499Z,42.04
2018-10-16T13:43:30.999Z,42.19
2018-10-16T13:46:34.575Z,41.93
2018-10-16T13:49:38.150Z,42.06
2018-10-16T13:52:41.796Z,41.83
2018-10-16T13:55:45.354Z,42.00
2018-10-16T13:58:48.835Z,41.60
2018-10-16T14:01:52.335Z,41.16
2018-10-16T14:04:55.861Z,41.00
2018-10-16T14:07:59.346Z,41.04
2018-10-16T14:11:02.891Z,40.66
2018-10-16T14:14:06.590Z,40.28
2018-10-16T14:17:10.261Z,40.45
2018-10-16T14:20:13.884Z,39.96
2018-10-16T14:23:17.214Z,39.51
2018-10-16T14:26:20.773Z,39.74
2018-10-16T14:29:24.250Z,39.87
2018-10-16T14:32:27.880Z,39.65
2018-10-16T14:35:31.368Z,40.63
2018-10-16T14:38:34.864Z,40.82
2018-10-16T14:41:38.359Z,41.01
2018-10-16T14:44:42.028Z,41.16
2018-10-16T14:47:45.431Z,41.20
2018-10-16T14:50:48.966Z,41.21
2018-10-16T14:53:52.502Z,41.35
2018-10-16T14:56:55.984Z,42.16
2018-10-16T14:59:59.575Z,42.34
2018-10-16T15:03:03.148Z,42.51
2018-10-16T15:06:06.740Z,41.94
2018-10-16T15:09:10.800Z,42.72
2018-10-16T15:12:14.324Z,42.95
2018-10-16T15:15:17.871Z,43.33
2018-10-16T15:18:21.356Z,43.06
2018-10-16T15:21:25.863Z,43.20
2018-10-16T15:24:29.370Z,43.25
2018-10-16T15:27:32.928Z,43.62
2018-10-16T15:30:36.449Z,44.24
2018-10-16T15:33:39.998Z,44.70
2018-10-16T15:36:43.451Z,45.00
2018-10-16T15:39:46.928Z,45.11
2018-10-16T15:42:50.383Z,44.65
2018-10-16T15:45:53.962Z,44.72
2018-10-16T15:48:57.573Z,44.71
2018-10-16T15:52:01.157Z,45.20
2018-10-16T15:55:05.109Z,44.96
2018-10-16T15:58:08.755Z,45.01
2018-10-16T16:01:12.326Z,45.30
2018-10-16T16:04:15.865Z,45.59
2018-10-16T16:07:19.431Z,46.06
2018-10-16T16:10:23.092Z,46.28
2018-10-16T16:13:27.056Z,46.46
2018-10-16T16:16:30.720Z,46.78
2018-10-16T16:19:34.234Z,47.17
2018-10-16T16:22:37.969Z,47.45
2018-10-16T16:25:41.659Z,47.66
2018-10-16T16:28:45.290Z,48.24
2018-10-16T16:31:48.915Z,48.98
2018-10-16T16:34:52.470Z,49.85
2018-10-16T16:37:56.154Z,50.21
2018-10-16T16:40:59.688Z,50.55
2018-10-16T16:44:03.741Z,50.68
2018-10-16T16:47:07.295Z,50.95
2018-10-16T16:50:11.995Z,51.32
2018-10-16T16:53:15.692Z,51.52
2018-10-16T16:56:19.239Z,52.05
2018-10-16T16:59:22.814Z,52.46
2018-10-16T17:02:26.412Z,52.68
2018-10-16T17:05:29.910Z,53.19
2018-10-16T17:08:33.396Z,53.62
2018-10-16T17:11:36.951Z,54.20
2018-10-16T17:14:40.397Z,54.67
2018-10-16T17:17:44.762Z,54.93
2018-10-16T17:20:48.234Z,55.12
2018-10-16T17:23:51.892Z,55.28
2018-10-16T17:26:55.478Z,55.46
2018-10-16T17:29:59.118Z,55.96
2018-10-16T17:33:02.675Z,56.31
2018-10-16T17:36:06.212Z,56.64
2018-10-16T17:39:10.959Z,57.28
2018-10-16T17:42:14.385Z,57.49
2018-10-16T17:45:17.901Z,57.66
2018-10-16T17:48:21.386Z,58.00
2018-10-16T17:51:24.875Z,58.30
2018-10-16T17:54:28.677Z,58.51
2018-10-16T17:57:32.249Z,58.62
2018-10-16T18:00:35.776Z,58.98
2018-10-16T18:03:39.411Z,59.38
2018-10-16T18:06:42.982Z,59.43
2018-10-16T18:09:46.536Z,59.25
2018-10-16T18:12:50.096Z,59.98
2018-10-16T18:15:53.820Z,59.97
2018-10-16T18:18:57.324Z,60.27
2018-10-16T18:22:00.881Z,60.13
2018-10-16T18:25:04.658Z,60.16
2018-10-16T18:28:08.225Z,60.35
2018-10-16T18:31:11.753Z,60.28
2018-10-16T18:34:15.268Z,60.50
2018-10-16T18:37:18.730Z,60.82
2018-10-16T18:40:22.129Z,61.18
2018-10-16T18:43:25.883Z,61.15
2018-10-16T18:46:29.549Z,61.40
2018-10-16T18:49:33.106Z,61.48
2018-10-16T18:52:36.567Z,62.06
2018-10-16T18:55:40.124Z,61.92
2018-10-16T18:58:43.622Z,62.96
2018-10-16T19:01:47.215Z,62.99
2018-10-16T19:04:50.760Z,62.43
2018-10-16T19:07:55.417Z,61.96
2018-10-16T19:10:59.132Z,62.30
2018-10-16T19:14:02.803Z,61.98
2018-10-16T19:17:06.323Z,63.02
2018-10-16T19:20:11.352Z,63.41
2018-10-16T19:23:14.987Z,63.31
2018-10-16T19:26:18.520Z,63.73
2018-10-16T19:29:22.096Z,63.95
2018-10-16T19:32:25.629Z,63.38
2018-10-16T19:35:29.336Z,64.22
2018-10-16T19:38:32.805Z,63.83
2018-10-16T19:41:36.635Z,64.45
2018-10-16T19:44:40.139Z,64.66
2018-10-16T19:47:43.652Z,65.29
2018-10-16T19:50:47.127Z,65.14
2018-10-16T19:53:50.590Z,65.74
2018-10-16T19:56:55.086Z,65.96
2018-10-16T19:59:58.678Z,66.16
2018-10-16T20:03:02.045Z,66.24
2018-10-16T20:06:05.591Z,66.30
2018-10-16T20:09:10.684Z,66.75
2018-10-16T20:12:14.266Z,66.61
2018-10-16T20:15:18.737Z,66.69
2018-10-16T20:18:22.478Z,65.82
2018-10-16T20:21:25.948Z,66.90
2018-10-16T20:24:29.431Z,67.51
2018-10-16T20:27:33.107Z,68.08
2018-10-16T20:30:37.538Z,67.84
2018-10-16T20:33:41.110Z,67.16
2018-10-16T20:36:44.547Z,68.08
2018-10-16T20:39:47.943Z,68.61
2018-10-16T20:42:51.368Z,69.05
2018-10-16T20:45:54.910Z,69.08
2018-10-16T20:48:58.371Z,68.46
2018-10-16T20:52:01.877Z,68.95
2018-10-16T20:55:05.850Z,69.37
2018-10-16T20:58:09.215Z,69.90
2018-10-16T21:01:14.096Z,69.57
2018-10-16T21:04:17.569Z,69.74
2018-10-16T21:07:21.086Z,70.45
2018-10-16T21:10:24.414Z,70.22
2018-10-16T21:13:27.807Z,70.37
2018-10-16T21:16:31.221Z,70.39
2018-10-16T21:19:34.641Z,70.59
2018-10-16T21:22:37.996Z,71.07
2018-10-16T21:25:41.403Z,71.35
2018-10-16T21:28:44.792Z,71.43
2018-10-16T21:31:48.243Z,71.37
2018-10-16T21:34:51.732Z,71.51
2018-10-16T21:37:55.213Z,71.80
2018-10-16T21:40:58.681Z,72.30
2018-10-16T21:44:02.126Z,72.36
2018-10-16T21:47:05.781Z,72.23
2018-10-16T21:50:09.362Z,72.25
2018-10-16T21:53:13.018Z,72.41
2018-10-16T21:56:16.515Z,72.56
2018-10-16T21:59:20.306Z,72.45
2018-10-16T22:02:29.523Z,71.92
2018-10-16T22:05:32.993Z,72.04
2018-10-16T22:08:36.479Z,72.76
2018-10-16T22:11:39.994Z,73.07
2018-10-16T22:14:43.498Z,73.29
2018-10-16T22:17:47.171Z,73.04
2018-10-16T22:20:50.712Z,73.49
2018-10-16T22:23:54.246Z,73.30
2018-10-16T22:26:57.749Z,73.38
2018-10-16T22:30:01.514Z,73.25
2018-10-16T22:33:05.716Z,73.10
2018-10-16T22:36:09.232Z,73.35
2018-10-16T22:39:12.750Z,73.25
2018-10-16T22:42:16.252Z,73.52
2018-10-16T22:45:21.374Z,73.72
2018-10-16T22:48:24.887Z,73.75
2018-10-16T22:51:28.387Z,73.32
2018-10-16T22:54:31.978Z,73.06
2018-10-16T22:57:35.634Z,73.27
2018-10-16T23:00:39.143Z,73.27
2018-10-16T23:03:42.687Z,73.38
2018-10-16T23:06:46.231Z,73.54
2018-10-16T23:09:49.701Z,73.77
2018-10-16T23:12:58.519Z,73.88
2018-10-16T23:16:02.061Z,73.80
2018-10-16T23:19:06.017Z,73.67
2018-10-16T23:22:09.448Z,74.62
2018-10-16T23:25:13.005Z,75.25
2018-10-16T23:28:16.519Z,75.16
2018-10-16T23:31:19.990Z,75.25
2018-10-16T23:34:24.510Z,75.42
2018-10-16T23:37:28.018Z,74.36
2018-10-16T23:40:31.513Z,73.79
2018-10-16T23:43:35.358Z,75.56
2018-10-16T23:46:38.916Z,75.40
2018-10-16T23:49:42.504Z,75.02
2018-10-16T23:52:48.026Z,75.57
2018-10-16T23:55:51.464Z,75.97
2018-10-16T23:58:54.992Z,76.13
